Radiosonde details



Informationen :

Serial : V3010020
Type : Vaisala RS41-SGP
Date of production : 24.07.2023
Frequency : 403.000MHz
Launchsite : Galeao
Nearest town : Maricá, BR (18.2km)

Altitude (Max) : 13100m at 2026-09-02 00:11:09
Speed (Max) : 183km/h at altitude 11456m

Average speed : 100km/h
Average ascent rate : 6m/s
Average descent rate : 0m/s
Ascent rate (Max) : 9.8m/s
Descent rate (Max): 3.1m/s

First frame :
PU1XMG-16 at 2026-09-01 23:36:03 at altitude 470m (OG: 428m)
Last frame :
PU1XMG-16 at 2026-09-02 00:11:09 at altitude 13100m (OG: 13058m)

Flighttime : 35m6s
Ascent time : 35m6s
Descent time : 0s
Uptime : -
Killtimer : -

Distance (Straight line distance): 64km

Distance (Route):


Frames : 284


Measurement :

Temperature : -54.5°C
Humidity : 5.7%
Pressure : 178.7hPa


Vertical profile (SkewT) :


Elevation profile :



Receiving stations :


Receiver Frames First received Last received
PU1XMG-16 284 2026-09-01 23:36:03 2026-09-02 00:11:09

Share per receiver :



All frames :


Receiver Date Latitude Longitude Direction Speed Altitude Climb Temperature Humidity Pressure Voltage Killtimer Uptime BKT XDATA
PU1XMG-162026-09-02 00:11:09-22.96541-42.6480487°148km/h13100m5.8m/s-54.5°C5.7%178.7hPa0V00:00:0000:00:0000:00:00
PU1XMG-162026-09-02 00:11:03-22.96540-42.6508892°150km/h13060m6.8m/s-54.2°C5.8%179.8hPa0V00:00:0000:00:0000:00:00
PU1XMG-162026-09-02 00:10:56-22.96545-42.6531989°137km/h13024m6.5m/s-54.0°C5.7%180.9hPa0V00:00:0000:00:0000:00:00
PU1XMG-162026-09-02 00:08:58-22.96784-42.7025784°166km/h12336m6.7m/s-49.3°C4.6%201.0hPa0V00:00:0000:00:0000:00:00
PU1XMG-162026-09-02 00:08:31-22.96939-42.7149384°173km/h12187m4.4m/s-48.7°C4.8%205.6hPa0V00:00:0000:00:0000:00:00
PU1XMG-162026-09-02 00:08:04-22.97097-42.7278182°179km/h12062m4.2m/s-47.9°C5.0%209.5hPa0V00:00:0000:00:0000:00:00
PU1XMG-162026-09-02 00:06:31-22.97756-42.7726280°173km/h11580m7.0m/s-44.3°C4.3%225.1hPa0V00:00:0000:00:0000:00:00
PU1XMG-162026-09-02 00:06:06-22.97926-42.7845884°181km/h11456m5.5m/s-43.4°C4.1%229.3hPa0V00:00:0000:00:0000:00:00
PU1XMG-162026-09-02 00:06:01-22.97972-42.7874982°172km/h11426m7.2m/s-43.1°C3.9%230.4hPa0V00:00:0000:00:0000:00:00
PU1XMG-162026-09-02 00:05:06-22.98221-42.8140090°157km/h11113m9.0m/s-41.0°C3.5%241.3hPa0V00:00:0000:00:0000:00:00
PU1XMG-162026-09-02 00:05:00-22.98229-42.8162088°164km/h11078m6.9m/s-40.8°C3.4%242.6hPa0V00:00:0000:00:0000:00:00
PU1XMG-162026-09-02 00:04:47-22.98240-42.8219089°159km/h11004m5.8m/s-40.2°C3.4%245.2hPa0V00:00:0000:00:0000:00:00
PU1XMG-162026-09-02 00:04:42-22.98240-42.8240592°153km/h10981m6.1m/s-40.0°C3.4%246.1hPa0V00:00:0000:00:0000:00:00
PU1XMG-162026-09-02 00:02:25-22.97488-42.88175113°137km/h10100m8.6m/s-36.3°C12.3%279.4hPa0V00:00:0000:00:0000:00:00
PU1XMG-162026-09-02 00:02:17-22.97414-42.88397114°148km/h10059m4.5m/s-36.1°C13.6%281.1hPa0V00:00:0000:00:0000:00:00
PU1XMG-162026-09-02 00:02:04-22.97263-42.88822114°141km/h9989m3.7m/s-35.7°C23.3%284.0hPa0V00:00:0000:00:0000:00:00
PU1XMG-162026-09-02 00:01:59-22.97192-42.88997116°131km/h9957m6.1m/s-35.5°C30.1%285.3hPa0V00:00:0000:00:0000:00:00
PU1XMG-162026-09-02 00:01:55-22.97110-42.89210112°146km/h9915m4.6m/s-35.5°C33.3%287.0hPa0V00:00:0000:00:0000:00:00
PU1XMG-162026-09-02 00:01:52-22.97030-42.89398118°148km/h9883m7.3m/s-35.3°C39.6%288.3hPa0V00:00:0000:00:0000:00:00
PU1XMG-162026-09-02 00:01:25-22.96668-42.90156119°137km/h9755m6.2m/s-34.4°C84.4%293.5hPa0V00:00:0000:00:0000:00:00
PU1XMG-162026-09-02 00:01:18-22.96561-42.90323127°166km/h9721m5.8m/s-34.3°C92.1%294.9hPa0V00:00:0000:00:0000:00:00
PU1XMG-162026-09-02 00:01:14-22.96430-42.90540120°137km/h9686m7.5m/s-33.9°C90.7%296.6hPa0V00:00:0000:00:0000:00:00
PU1XMG-162026-09-02 00:01:06-22.96341-42.90694129°141km/h9650m7.4m/s-33.7°C90.1%298.0hPa0V00:00:0000:00:0000:00:00
PU1XMG-162026-09-02 00:00:57-22.96136-42.90986126°130km/h9586m8.6m/s-33.1°C87.6%300.8hPa0V00:00:0000:00:0000:00:00
PU1XMG-162026-09-02 00:00:36-22.95656-42.91664133°135km/h9431m6.6m/s-32.0°C80.6%307.4hPa0V00:00:0000:00:0000:00:00
PU1XMG-162026-09-02 00:00:28-22.95442-42.91964130°141km/h9362m6.8m/s-31.5°C84.3%310.4hPa0V00:00:0000:00:0000:00:00
PU1XMG-162026-09-02 00:00:22-22.95297-42.92168132°146km/h9320m5.7m/s-31.1°C88.1%312.2hPa0V00:00:0000:00:0000:00:00
PU1XMG-162026-09-02 00:00:17-22.95185-42.92317127°128km/h9288m6.2m/s-30.8°C87.1%313.6hPa0V00:00:0000:00:0000:00:00
PU1XMG-162026-09-02 00:00:09-22.95082-42.92454131°137km/h9255m5.3m/s-30.5°C89.9%315.1hPa0V00:00:0000:00:0000:00:00
PU1XMG-162026-09-02 00:00:00-22.94943-42.92637128°139km/h9222m7.2m/s-30.2°C90.1%316.5hPa0V00:00:0000:00:0000:00:00
PU1XMG-162026-09-01 23:59:55-22.94838-42.92790133°139km/h9185m8.2m/s-29.8°C87.7%318.2hPa0V00:00:0000:00:0000:00:00
PU1XMG-162026-09-01 23:59:49-22.94703-42.92956129°142km/h9133m9.8m/s-29.4°C84.6%320.4hPa0V00:00:0000:00:0000:00:00
PU1XMG-162026-09-01 23:59:44-22.94581-42.93106132°144km/h9097m5.7m/s-29.1°C85.7%322.0hPa0V00:00:0000:00:0000:00:00
PU1XMG-162026-09-01 23:59:36-22.94412-42.93367123°133km/h9040m8.4m/s-28.6°C81.8%324.7hPa0V00:00:0000:00:0000:00:00
PU1XMG-162026-09-01 23:59:19-22.94069-42.93847124°120km/h8923m4.6m/s-27.4°C86.9%330.0hPa0V00:00:0000:00:0000:00:00
PU1XMG-162026-09-01 23:59:13-22.93958-42.93991133°117km/h8889m8.0m/s-27.1°C87.1%331.6hPa0V00:00:0000:00:0000:00:00
PU1XMG-162026-09-01 23:59:06-22.93801-42.94199131°117km/h8825m9.2m/s-26.6°C88.1%334.5hPa0V00:00:0000:00:0000:00:00
PU1XMG-162026-09-01 23:59:01-22.93708-42.94329128°124km/h8780m9.8m/s-26.3°C86.2%336.6hPa0V00:00:0000:00:0000:00:00
PU1XMG-162026-09-01 23:58:55-22.93599-42.94469132°137km/h8741m6.1m/s-26.0°C85.5%338.5hPa0V00:00:0000:00:0000:00:00
PU1XMG-162026-09-01 23:58:50-22.93488-42.94639124°117km/h8697m8.4m/s-25.7°C82.9%340.5hPa0V00:00:0000:00:0000:00:00
PU1XMG-162026-09-01 23:58:40-22.93301-42.94853137°119km/h8636m8.6m/s-25.2°C83.0%343.3hPa0V00:00:0000:00:0000:00:00
PU1XMG-162026-09-01 23:58:34-22.93166-42.94993138°135km/h8589m8.2m/s-24.9°C82.3%345.6hPa0V00:00:0000:00:0000:00:00
PU1XMG-162026-09-01 23:58:29-22.93046-42.95118130°122km/h8556m6.8m/s-24.6°C83.3%347.2hPa0V00:00:0000:00:0000:00:00
PU1XMG-162026-09-01 23:58:23-22.92930-42.95264137°115km/h8512m7.3m/s-24.3°C81.7%349.3hPa0V00:00:0000:00:0000:00:00
PU1XMG-162026-09-01 23:58:18-22.92832-42.95387131°119km/h8478m8.4m/s-24.0°C82.3%351.0hPa0V00:00:0000:00:0000:00:00
PU1XMG-162026-09-01 23:58:12-22.92714-42.95530131°122km/h8430m8.1m/s-23.7°C82.2%353.3hPa0V00:00:0000:00:0000:00:00
PU1XMG-162026-09-01 23:58:06-22.92587-42.95690127°115km/h8391m5.8m/s-23.4°C82.9%355.2hPa0V00:00:0000:00:0000:00:00
PU1XMG-162026-09-01 23:58:01-22.92497-42.95802137°119km/h8354m9.0m/s-23.1°C82.7%356.8hPa0V00:00:0000:00:0000:00:00
PU1XMG-162026-09-01 23:57:56-22.92369-42.95957126°113km/h8312m7.8m/s-22.8°C82.9%358.8hPa0V00:00:0000:00:0000:00:00
PU1XMG-162026-09-01 23:57:50-22.92283-42.96067136°111km/h8277m9.3m/s-22.5°C83.8%360.5hPa0V00:00:0000:00:0000:00:00
PU1XMG-162026-09-01 23:57:44-22.92153-42.96214127°115km/h8233m4.7m/s-22.2°C85.3%362.8hPa0V00:00:0000:00:0000:00:00
PU1XMG-162026-09-01 23:57:39-22.92062-42.96327141°115km/h8199m4.8m/s-21.9°C85.5%364.4hPa0V00:00:0000:00:0000:00:00
PU1XMG-162026-09-01 23:57:34-22.91925-42.96476129°126km/h8159m8.0m/s-21.6°C85.1%366.5hPa0V00:00:0000:00:0000:00:00
PU1XMG-162026-09-01 23:57:28-22.91823-42.96619134°100km/h8116m5.7m/s-21.3°C85.7%368.4hPa0V00:00:0000:00:0000:00:00
PU1XMG-162026-09-01 23:57:19-22.91660-42.96795135°131km/h8067m8.5m/s-20.9°C85.0%371.0hPa0V00:00:0000:00:0000:00:00
PU1XMG-162026-09-01 23:57:14-22.91564-42.96916135°108km/h8032m7.1m/s-20.7°C85.8%372.7hPa0V00:00:0000:00:0000:00:00
PU1XMG-162026-09-01 23:57:08-22.91425-42.97056133°128km/h7997m5.8m/s-20.4°C85.4%374.6hPa0V00:00:0000:00:0000:00:00
PU1XMG-162026-09-01 23:57:03-22.91327-42.97174140°117km/h7965m4.9m/s-20.2°C84.8%376.2hPa0V00:00:0000:00:0000:00:00
PU1XMG-162026-09-01 23:56:57-22.91190-42.97322129°128km/h7928m5.9m/s-20.0°C84.4%378.0hPa0V00:00:0000:00:0000:00:00
PU1XMG-162026-09-01 23:56:52-22.91091-42.97444135°113km/h7900m7.1m/s-19.8°C85.8%379.5hPa0V00:00:0000:00:0000:00:00
PU1XMG-162026-09-01 23:56:47-22.90999-42.97552137°108km/h7864m6.8m/s-19.5°C85.8%381.4hPa0V00:00:0000:00:0000:00:00
PU1XMG-162026-09-01 23:56:43-22.90891-42.97671129°126km/h7836m5.6m/s-19.3°C86.2%382.9hPa0V00:00:0000:00:0000:00:00
PU1XMG-162026-09-01 23:56:36-22.90777-42.97810139°119km/h7796m4.7m/s-19.1°C86.6%384.9hPa0V00:00:0000:00:0000:00:00
PU1XMG-162026-09-01 23:56:31-22.90668-42.97939128°126km/h7762m7.0m/s-18.8°C85.4%386.7hPa0V00:00:0000:00:0000:00:00
PU1XMG-162026-09-01 23:56:26-22.90575-42.98053139°110km/h7731m6.9m/s-18.6°C86.1%388.3hPa0V00:00:0000:00:0000:00:00
PU1XMG-162026-09-01 23:56:20-22.90452-42.98203127°117km/h7693m8.2m/s-18.3°C86.2%390.3hPa0V00:00:0000:00:0000:00:00
PU1XMG-162026-09-01 23:56:15-22.90350-42.98319140°128km/h7657m6.2m/s-18.1°C86.7%392.1hPa0V00:00:0000:00:0000:00:00
PU1XMG-162026-09-01 23:56:10-22.90242-42.98449128°119km/h7624m8.3m/s-17.9°C86.7%393.9hPa0V00:00:0000:00:0000:00:00
PU1XMG-162026-09-01 23:56:00-22.90046-42.98673131°126km/h7564m7.1m/s-17.5°C88.0%397.1hPa0V00:00:0000:00:0000:00:00
PU1XMG-162026-09-01 23:55:54-22.89916-42.98808135°106km/h7526m7.7m/s-17.2°C88.5%399.3hPa0V00:00:0000:00:0000:00:00
PU1XMG-162026-09-01 23:55:49-22.89820-42.98936134°133km/h7497m6.0m/s-17.0°C89.2%400.9hPa0V00:00:0000:00:0000:00:00
PU1XMG-162026-09-01 23:55:44-22.89709-42.99045138°102km/h7461m7.6m/s-16.8°C88.7%402.5hPa0V00:00:0000:00:0000:00:00
PU1XMG-162026-09-01 23:55:39-22.89620-42.99157131°120km/h7430m9.5m/s-16.6°C88.7%404.1hPa0V00:00:0000:00:0000:00:00
PU1XMG-162026-09-01 23:55:33-22.89478-42.99295143°117km/h7390m6.2m/s-16.4°C88.3%406.3hPa0V00:00:0000:00:0000:00:00
PU1XMG-162026-09-01 23:55:28-22.89374-42.99401135°119km/h7359m7.1m/s-16.2°C89.2%408.0hPa0V00:00:0000:00:0000:00:00
PU1XMG-162026-09-01 23:55:22-22.89249-42.99537134°106km/h7317m5.4m/s-15.9°C89.2%410.2hPa0V00:00:0000:00:0000:00:00
PU1XMG-162026-09-01 23:55:16-22.89120-42.99669135°128km/h7279m5.4m/s-15.7°C89.9%412.5hPa0V00:00:0000:00:0000:00:00
PU1XMG-162026-09-01 23:55:10-22.89003-42.99800135°104km/h7236m7.5m/s-15.4°C89.0%414.7hPa0V00:00:0000:00:0000:00:00
PU1XMG-162026-09-01 23:55:05-22.88902-42.99926134°135km/h7200m7.8m/s-15.1°C88.4%416.8hPa0V00:00:0000:00:0000:00:00
PU1XMG-162026-09-01 23:55:00-22.88788-43.00039136°108km/h7168m7.1m/s-14.9°C89.1%418.5hPa0V00:00:0000:00:0000:00:00
PU1XMG-162026-09-01 23:54:54-22.88667-43.00179139°126km/h7132m5.6m/s-14.7°C89.4%420.6hPa0V00:00:0000:00:0000:00:00
PU1XMG-162026-09-01 23:54:48-22.88541-43.00313128°115km/h7093m6.0m/s-14.5°C88.8%422.7hPa0V00:00:0000:00:0000:00:00
PU1XMG-162026-09-01 23:54:43-22.88436-43.00439138°128km/h7063m7.4m/s-14.3°C88.9%424.2hPa0V00:00:0000:00:0000:00:00
PU1XMG-162026-09-01 23:54:38-22.88330-43.00558129°122km/h7032m4.8m/s-14.2°C88.8%426.0hPa0V00:00:0000:00:0000:00:00
PU1XMG-162026-09-01 23:54:32-22.88195-43.00703143°111km/h6994m6.2m/s-14.0°C88.7%428.0hPa0V00:00:0000:00:0000:00:00
PU1XMG-162026-09-01 23:54:27-22.88097-43.00806131°117km/h6963m5.6m/s-13.8°C88.7%429.7hPa0V00:00:0000:00:0000:00:00
PU1XMG-162026-09-01 23:54:16-22.87875-43.01061139°111km/h6904m5.7m/s-13.4°C90.3%433.3hPa0V00:00:0000:00:0000:00:00
PU1XMG-162026-09-01 23:54:10-22.87762-43.01184128°115km/h6868m7.5m/s-13.2°C89.9%435.4hPa0V00:00:0000:00:0000:00:00
PU1XMG-162026-09-01 23:54:04-22.87631-43.01334142°126km/h6834m7.3m/s-12.9°C88.3%437.2hPa0V00:00:0000:00:0000:00:00
PU1XMG-162026-09-01 23:53:58-22.87507-43.01453130°102km/h6798m6.8m/s-12.8°C88.4%439.4hPa0V00:00:0000:00:0000:00:00
PU1XMG-162026-09-01 23:53:53-22.87411-43.01577137°124km/h6773m4.6m/s-12.6°C88.6%440.9hPa0V00:00:0000:00:0000:00:00
PU1XMG-162026-09-01 23:53:48-22.87307-43.01678132°99km/h6745m5.4m/s-12.4°C89.3%442.5hPa0V00:00:0000:00:0000:00:00
PU1XMG-162026-09-01 23:53:43-22.87223-43.01796131°122km/h6718m5.6m/s-12.2°C89.1%444.2hPa0V00:00:0000:00:0000:00:00
PU1XMG-162026-09-01 23:53:37-22.87097-43.01925138°100km/h6682m6.0m/s-12.0°C89.2%446.1hPa0V00:00:0000:00:0000:00:00
PU1XMG-162026-09-01 23:53:31-22.86990-43.02053135°108km/h6651m5.3m/s-11.9°C90.2%447.9hPa0V00:00:0000:00:0000:00:00
PU1XMG-162026-09-01 23:53:26-22.86905-43.02155128°102km/h6621m6.9m/s-11.7°C89.9%449.7hPa0V00:00:0000:00:0000:00:00
PU1XMG-162026-09-01 23:53:21-22.86807-43.02269141°115km/h6595m7.2m/s-11.5°C89.6%451.2hPa0V00:00:0000:00:0000:00:00
PU1XMG-162026-09-01 23:53:15-22.86701-43.02380127°95km/h6561m5.0m/s-11.3°C90.0%453.3hPa0V00:00:0000:00:0000:00:00
PU1XMG-162026-09-01 23:53:10-22.86613-43.02491137°115km/h6533m7.0m/s-11.2°C89.9%455.0hPa0V00:00:0000:00:0000:00:00
PU1XMG-162026-09-01 23:53:05-22.86510-43.02601132°102km/h6505m4.4m/s-11.1°C90.5%456.5hPa0V00:00:0000:00:0000:00:00
PU1XMG-162026-09-01 23:53:00-22.86430-43.02691142°93km/h6475m4.5m/s-10.9°C89.9%458.1hPa0V00:00:0000:00:0000:00:00
PU1XMG-162026-09-01 23:52:54-22.86310-43.02811131°104km/h6443m4.4m/s-10.7°C90.2%460.0hPa0V00:00:0000:00:0000:00:00
PU1XMG-162026-09-01 23:52:49-22.86225-43.02908141°102km/h6414m3.8m/s-10.5°C90.5%461.8hPa0V00:00:0000:00:0000:00:00
PU1XMG-162026-09-01 23:52:44-22.86132-43.03014127°108km/h6381m6.4m/s-10.3°C89.6%463.6hPa0V00:00:0000:00:0000:00:00
PU1XMG-162026-09-01 23:52:39-22.86054-43.03128131°104km/h6359m6.4m/s-10.2°C90.3%465.1hPa0V00:00:0000:00:0000:00:00
PU1XMG-162026-09-01 23:52:33-22.85950-43.03236132°93km/h6327m4.0m/s-10.0°C91.4%467.1hPa0V00:00:0000:00:0000:00:00
PU1XMG-162026-09-01 23:52:28-22.85866-43.03342136°104km/h6303m5.1m/s-9.9°C92.7%468.6hPa0V00:00:0000:00:0000:00:00
PU1XMG-162026-09-01 23:52:23-22.85773-43.03457125°99km/h6272m5.8m/s-9.8°C91.9%470.6hPa0V00:00:0000:00:0000:00:00
PU1XMG-162026-09-01 23:52:16-22.85663-43.03601137°115km/h6240m4.8m/s-9.6°C92.8%472.4hPa0V00:00:0000:00:0000:00:00
PU1XMG-162026-09-01 23:52:11-22.85563-43.03696139°97km/h6216m5.5m/s-9.5°C92.8%474.0hPa0V00:00:0000:00:0000:00:00
PU1XMG-162026-09-01 23:52:07-22.85480-43.03786134°91km/h6194m5.7m/s-9.4°C93.0%475.2hPa0V00:00:0000:00:0000:00:00
PU1XMG-162026-09-01 23:52:01-22.85392-43.03898128°115km/h6164m4.3m/s-9.2°C93.9%477.1hPa0V00:00:0000:00:0000:00:00
PU1XMG-162026-09-01 23:51:55-22.85286-43.04030138°115km/h6128m6.6m/s-9.0°C93.8%479.2hPa0V00:00:0000:00:0000:00:00
PU1XMG-162026-09-01 23:51:50-22.85185-43.04155126°115km/h6097m5.6m/s-8.8°C93.7%481.1hPa0V00:00:0000:00:0000:00:00
PU1XMG-162026-09-01 23:51:45-22.85097-43.04273134°117km/h6074m7.8m/s-8.7°C94.6%482.6hPa0V00:00:0000:00:0000:00:00
PU1XMG-162026-09-01 23:51:39-22.84968-43.04406138°119km/h6039m6.3m/s-8.5°C95.4%484.8hPa0V00:00:0000:00:0000:00:00
PU1XMG-162026-09-01 23:51:33-22.84847-43.04563124°115km/h6002m7.7m/s-8.3°C95.3%487.1hPa0V00:00:0000:00:0000:00:00
PU1XMG-162026-09-01 23:51:27-22.84743-43.04695138°113km/h5966m6.0m/s-8.0°C96.1%489.2hPa0V00:00:0000:00:0000:00:00
PU1XMG-162026-09-01 23:51:22-22.84606-43.04843136°128km/h5934m6.1m/s-7.9°C96.4%491.2hPa0V00:00:0000:00:0000:00:00
PU1XMG-162026-09-01 23:51:15-22.84492-43.04978124°111km/h5900m4.7m/s-7.7°C96.7%493.3hPa0V00:00:0000:00:0000:00:00
PU1XMG-162026-09-01 23:51:10-22.84401-43.05119131°131km/h5876m4.9m/s-7.6°C97.0%495.1hPa0V00:00:0000:00:0000:00:00
PU1XMG-162026-09-01 23:51:05-22.84300-43.05241132°108km/h5852m4.6m/s-7.5°C97.0%496.5hPa0V00:00:0000:00:0000:00:00
PU1XMG-162026-09-01 23:50:59-22.84191-43.05386130°126km/h5824m5.3m/s-7.3°C97.1%498.4hPa0V00:00:0000:00:0000:00:00
PU1XMG-162026-09-01 23:50:54-22.84091-43.05514131°124km/h5793m7.9m/s-7.2°C96.8%500.3hPa0V00:00:0000:00:0000:00:00
PU1XMG-162026-09-01 23:50:48-22.83980-43.05680122°124km/h5756m5.3m/s-7.1°C97.8%502.7hPa0V00:00:0000:00:0000:00:00
PU1XMG-162026-09-01 23:50:43-22.83890-43.05834126°137km/h5726m5.3m/s-7.0°C97.5%504.7hPa0V00:00:0000:00:0000:00:00
PU1XMG-162026-09-01 23:50:37-22.83776-43.06009123°122km/h5692m6.1m/s-6.9°C98.2%506.8hPa0V00:00:0000:00:0000:00:00
PU1XMG-162026-09-01 23:50:32-22.83696-43.06148118°115km/h5659m7.3m/s-6.7°C98.1%508.8hPa0V00:00:0000:00:0000:00:00
PU1XMG-162026-09-01 23:50:28-22.83627-43.06304119°137km/h5630m4.8m/s-6.6°C98.2%510.7hPa0V00:00:0000:00:0000:00:00
PU1XMG-162026-09-01 23:50:21-22.83513-43.06483129°120km/h5601m6.6m/s-6.4°C98.4%512.7hPa0V00:00:0000:00:0000:00:00
PU1XMG-162026-09-01 23:50:16-22.83436-43.06610118°111km/h5575m4.7m/s-6.3°C98.5%514.4hPa0V00:00:0000:00:0000:00:00
PU1XMG-162026-09-01 23:50:10-22.83352-43.06795120°137km/h5550m5.0m/s-6.1°C98.5%516.2hPa0V00:00:0000:00:0000:00:00
PU1XMG-162026-09-01 23:50:05-22.83257-43.06949130°126km/h5526m4.9m/s-6.1°C98.1%517.7hPa0V00:00:0000:00:0000:00:00
PU1XMG-162026-09-01 23:49:59-22.83157-43.07104118°119km/h5495m4.8m/s-6.0°C98.9%519.8hPa0V00:00:0000:00:0000:00:00
PU1XMG-162026-09-01 23:49:53-22.83059-43.07289125°130km/h5466m5.6m/s-5.9°C98.1%521.7hPa0V00:00:0000:00:0000:00:00
PU1XMG-162026-09-01 23:49:49-22.82975-43.07434120°119km/h5438m6.2m/s-5.9°C98.9%523.7hPa0V00:00:0000:00:0000:00:00
PU1XMG-162026-09-01 23:49:44-22.82897-43.07574121°124km/h5409m7.6m/s-5.8°C98.3%525.5hPa0V00:00:0000:00:0000:00:00
PU1XMG-162026-09-01 23:49:38-22.82823-43.07749118°110km/h5373m6.2m/s-5.5°C99.7%528.0hPa0V00:00:0000:00:0000:00:00
PU1XMG-162026-09-01 23:49:31-22.82730-43.07924122°130km/h5342m5.6m/s-5.4°C98.9%530.1hPa0V00:00:0000:00:0000:00:00
PU1XMG-162026-09-01 23:49:27-22.82648-43.08061123°106km/h5312m6.4m/s-5.2°C99.5%531.9hPa0V00:00:0000:00:0000:00:00
PU1XMG-162026-09-01 23:49:21-22.82590-43.08190112°113km/h5279m7.0m/s-5.2°C99.0%534.3hPa0V00:00:0000:00:0000:00:00
PU1XMG-162026-09-01 23:49:15-22.82508-43.08379121°130km/h5246m4.5m/s-5.0°C99.6%536.6hPa0V00:00:0000:00:0000:00:00
PU1XMG-162026-09-01 23:49:11-22.82423-43.08525125°122km/h5221m4.6m/s-4.9°C99.4%538.1hPa0V00:00:0000:00:0000:00:00
PU1XMG-162026-09-01 23:49:05-22.82344-43.08663117°113km/h5197m7.0m/s-4.8°C99.0%539.7hPa0V00:00:0000:00:0000:00:00
PU1XMG-162026-09-01 23:49:00-22.82288-43.08812113°122km/h5164m5.0m/s-4.7°C99.7%541.9hPa0V00:00:0000:00:0000:00:00
PU1XMG-162026-09-01 23:48:55-22.82224-43.08965114°126km/h5133m4.3m/s-4.6°C99.5%544.1hPa0V00:00:0000:00:0000:00:00
PU1XMG-162026-09-01 23:48:49-22.82156-43.09137119°108km/h5096m6.1m/s-4.6°C98.8%546.6hPa0V00:00:0000:00:0000:00:00
PU1XMG-162026-09-01 23:48:43-22.82071-43.09312115°126km/h5067m5.1m/s-4.6°C98.8%548.7hPa0V00:00:0000:00:0000:00:00
PU1XMG-162026-09-01 23:48:38-22.82009-43.09464114°119km/h5037m5.3m/s-4.5°C98.9%550.9hPa0V00:00:0000:00:0000:00:00
PU1XMG-162026-09-01 23:48:32-22.81958-43.09642107°99km/h4999m7.6m/s-4.4°C98.9%553.6hPa0V00:00:0000:00:0000:00:00
PU1XMG-162026-09-01 23:48:27-22.81907-43.09772117°108km/h4971m6.5m/s-4.3°C99.1%555.5hPa0V00:00:0000:00:0000:00:00
PU1XMG-162026-09-01 23:48:21-22.81840-43.09924112°97km/h4935m6.0m/s-4.1°C98.1%558.0hPa0V00:00:0000:00:0000:00:00
PU1XMG-162026-09-01 23:48:16-22.81806-43.10064102°113km/h4911m4.7m/s-4.0°C98.8%559.8hPa0V00:00:0000:00:0000:00:00
PU1XMG-162026-09-01 23:48:10-22.81772-43.10235108°100km/h4878m5.3m/s-3.9°C98.3%561.9hPa0V00:00:0000:00:0000:00:00
PU1XMG-162026-09-01 23:48:05-22.81727-43.10376108°113km/h4854m4.5m/s-3.7°C99.3%563.7hPa0V00:00:0000:00:0000:00:00
PU1XMG-162026-09-01 23:47:59-22.81668-43.10540116°106km/h4818m4.4m/s-3.6°C98.9%566.3hPa0V00:00:0000:00:0000:00:00
PU1XMG-162026-09-01 23:47:55-22.81612-43.10703108°108km/h4784m5.9m/s-3.5°C100.0%568.6hPa0V00:00:0000:00:0000:00:00
PU1XMG-162026-09-01 23:47:47-22.81570-43.10875106°110km/h4751m6.1m/s-3.2°C99.5%571.1hPa0V00:00:0000:00:0000:00:00
PU1XMG-162026-09-01 23:47:41-22.81516-43.11034118°104km/h4716m7.5m/s-3.1°C99.6%573.7hPa0V00:00:0000:00:0000:00:00
PU1XMG-162026-09-01 23:47:36-22.81453-43.11166118°104km/h4690m5.7m/s-3.0°C99.2%575.5hPa0V00:00:0000:00:0000:00:00
PU1XMG-162026-09-01 23:47:30-22.81397-43.11312106°95km/h4660m4.9m/s-2.9°C99.4%577.7hPa0V00:00:0000:00:0000:00:00
PU1XMG-162026-09-01 23:47:25-22.81362-43.11441111°100km/h4638m5.3m/s-2.9°C0%579.3hPa0V00:00:0000:00:0000:00:00
PU1XMG-162026-09-01 23:47:19-22.81316-43.11609101°110km/h4602m5.4m/s-3.1°C0%581.9hPa0V00:00:0000:00:0000:00:00
PU1XMG-162026-09-01 23:47:12-22.81251-43.11924103°97km/h4537m6.2m/s-2.7°C98.6%586.7hPa0V00:00:0000:00:0000:00:00
PU1XMG-162026-09-01 23:47:03-22.81231-43.1206097°102km/h4513m7.5m/s-2.5°C98.1%588.4hPa0V00:00:0000:00:0000:00:00
PU1XMG-162026-09-01 23:46:57-22.81206-43.12230104°108km/h4474m7.6m/s-2.1°C94.8%591.2hPa0V00:00:0000:00:0000:00:00
PU1XMG-162026-09-01 23:46:52-22.81184-43.1237798°106km/h4444m4.6m/s-1.8°C94.3%593.5hPa0V00:00:0000:00:0000:00:00
PU1XMG-162026-09-01 23:46:48-22.81162-43.12513101°100km/h4417m4.3m/s-1.6°C93.2%595.5hPa0V00:00:0000:00:0000:00:00
PU1XMG-162026-09-01 23:46:41-22.81146-43.1268397°102km/h4386m6.0m/s-1.3°C91.7%597.9hPa0V00:00:0000:00:0000:00:00
PU1XMG-162026-09-01 23:46:35-22.81122-43.12849104°115km/h4355m5.2m/s-1.3°C91.6%600.3hPa0V00:00:0000:00:0000:00:00
PU1XMG-162026-09-01 23:46:29-22.81086-43.13034100°104km/h4326m5.3m/s-0.9°C89.9%602.7hPa0V00:00:0000:00:0000:00:00
PU1XMG-162026-09-01 23:46:24-22.81079-43.1317391°110km/h4302m4.9m/s-0.9°C89.0%604.5hPa0V00:00:0000:00:0000:00:00
PU1XMG-162026-09-01 23:46:18-22.81067-43.1336598°120km/h4271m5.8m/s-0.6°C87.6%606.7hPa0V00:00:0000:00:0000:00:00
PU1XMG-162026-09-01 23:46:13-22.81056-43.1352693°111km/h4242m6.3m/s-0.2°C86.0%608.9hPa0V00:00:0000:00:0000:00:00
PU1XMG-162026-09-01 23:46:07-22.81045-43.1370796°122km/h4207m5.3m/s0.1°C83.7%611.5hPa0V00:00:0000:00:0000:00:00
PU1XMG-162026-09-01 23:46:02-22.81030-43.1386798°108km/h4179m5.1m/s0.3°C82.8%613.8hPa0V00:00:0000:00:0000:00:00
PU1XMG-162026-09-01 23:45:56-22.81029-43.1403790°110km/h4146m8.3m/s0.2°C85.2%616.3hPa0V00:00:0000:00:0000:00:00
PU1XMG-162026-09-01 23:45:51-22.81020-43.1418595°106km/h4114m7.1m/s0.4°C84.4%618.8hPa0V00:00:0000:00:0000:00:00
PU1XMG-162026-09-01 23:45:45-22.81014-43.1435598°106km/h4076m5.1m/s0.6°C84.7%621.6hPa0V00:00:0000:00:0000:00:00
PU1XMG-162026-09-01 23:45:40-22.81002-43.1449997°100km/h4043m6.6m/s0.6°C85.9%623.9hPa0V00:00:0000:00:0000:00:00
PU1XMG-162026-09-01 23:45:34-22.80987-43.1466896°100km/h4009m6.4m/s0.7°C88.1%626.7hPa0V00:00:0000:00:0000:00:00
PU1XMG-162026-09-01 23:45:29-22.80971-43.1481494°110km/h3982m5.5m/s1.0°C86.3%629.0hPa0V00:00:0000:00:0000:00:00
PU1XMG-162026-09-01 23:45:23-22.80956-43.14967102°93km/h3948m5.0m/s0.9°C87.6%631.4hPa0V00:00:0000:00:0000:00:00
PU1XMG-162026-09-01 23:45:17-22.80939-43.15119102°86km/h3915m3.1m/s1.2°C87.1%634.0hPa0V00:00:0000:00:0000:00:00
PU1XMG-162026-09-01 23:45:12-22.80912-43.1526098°84km/h3889m3.2m/s1.3°C86.5%635.9hPa0V00:00:0000:00:0000:00:00
PU1XMG-162026-09-01 23:45:06-22.80897-43.1539097°108km/h3866m5.4m/s1.5°C84.8%638.0hPa0V00:00:0000:00:0000:00:00
PU1XMG-162026-09-01 23:45:01-22.80876-43.1556395°102km/h3827m5.0m/s1.8°C83.0%640.8hPa0V00:00:0000:00:0000:00:00
PU1XMG-162026-09-01 23:44:54-22.80868-43.1573292°102km/h3792m7.4m/s2.0°C80.4%643.6hPa0V00:00:0000:00:0000:00:00
PU1XMG-162026-09-01 23:44:49-22.80855-43.1589695°97km/h3757m5.5m/s2.4°C78.9%646.5hPa0V00:00:0000:00:0000:00:00
PU1XMG-162026-09-01 23:44:43-22.80845-43.1605093°99km/h3723m9.1m/s2.8°C77.2%649.4hPa0V00:00:0000:00:0000:00:00
PU1XMG-162026-09-01 23:44:38-22.80840-43.1618994°106km/h3691m7.7m/s3.0°C76.1%651.9hPa0V00:00:0000:00:0000:00:00
PU1XMG-162026-09-01 23:44:32-22.80847-43.1633985°89km/h3657m3.9m/s2.6°C77.8%654.6hPa0V00:00:0000:00:0000:00:00
PU1XMG-162026-09-01 23:44:27-22.80860-43.1647489°100km/h3633m4.5m/s2.6°C78.7%656.5hPa0V00:00:0000:00:0000:00:00
PU1XMG-162026-09-01 23:44:20-22.80871-43.1663186°88km/h3597m4.9m/s2.7°C79.4%659.3hPa0V00:00:0000:00:0000:00:00
PU1XMG-162026-09-01 23:44:16-22.80879-43.1676085°97km/h3569m6.6m/s2.9°C78.9%661.8hPa0V00:00:0000:00:0000:00:00
PU1XMG-162026-09-01 23:44:10-22.80899-43.1690678°88km/h3533m6.1m/s3.2°C77.6%664.6hPa0V00:00:0000:00:0000:00:00
PU1XMG-162026-09-01 23:44:03-22.80916-43.1705384°95km/h3498m8.4m/s3.4°C77.1%667.4hPa0V00:00:0000:00:0000:00:00
PU1XMG-162026-09-01 23:43:58-22.80927-43.1718389°102km/h3473m5.8m/s3.4°C77.6%669.6hPa0V00:00:0000:00:0000:00:00
PU1XMG-162026-09-01 23:43:53-22.80938-43.1731987°93km/h3448m4.4m/s3.3°C78.6%671.6hPa0V00:00:0000:00:0000:00:00
PU1XMG-162026-09-01 23:43:47-22.80947-43.1746691°78km/h3415m3.9m/s3.5°C78.2%674.2hPa0V00:00:0000:00:0000:00:00
PU1XMG-162026-09-01 23:43:43-22.80940-43.1757693°86km/h3392m6.4m/s3.7°C79.2%676.3hPa0V00:00:0000:00:0000:00:00
PU1XMG-162026-09-01 23:43:36-22.80944-43.1771793°84km/h3359m5.6m/s3.9°C79.7%679.0hPa0V00:00:0000:00:0000:00:00
PU1XMG-162026-09-01 23:43:32-22.80941-43.1783992°88km/h3333m7.0m/s4.1°C79.6%681.0hPa0V00:00:0000:00:0000:00:00
PU1XMG-162026-09-01 23:43:27-22.80939-43.1795689°84km/h3307m7.0m/s4.3°C78.2%683.2hPa0V00:00:0000:00:0000:00:00
PU1XMG-162026-09-01 23:43:22-22.80936-43.1807293°84km/h3281m8.3m/s4.6°C77.3%685.5hPa0V00:00:0000:00:0000:00:00
PU1XMG-162026-09-01 23:43:15-22.80931-43.1820789°82km/h3242m7.5m/s4.9°C76.6%688.7hPa0V00:00:0000:00:0000:00:00
PU1XMG-162026-09-01 23:43:10-22.80930-43.1834592°86km/h3203m8.4m/s5.2°C75.7%692.0hPa0V00:00:0000:00:0000:00:00
PU1XMG-162026-09-01 23:43:04-22.80927-43.1846592°88km/h3170m7.7m/s5.6°C73.8%694.7hPa0V00:00:0000:00:0000:00:00
PU1XMG-162026-09-01 23:43:00-22.80923-43.1858189°89km/h3138m6.2m/s5.9°C72.6%697.4hPa0V00:00:0000:00:0000:00:00
PU1XMG-162026-09-01 23:42:53-22.80918-43.1872995°89km/h3103m7.2m/s6.1°C73.0%700.5hPa0V00:00:0000:00:0000:00:00
PU1XMG-162026-09-01 23:42:48-22.80905-43.1886992°80km/h3066m5.4m/s6.4°C72.8%703.7hPa0V00:00:0000:00:0000:00:00
PU1XMG-162026-09-01 23:42:42-22.80902-43.1900893°86km/h3032m7.4m/s6.7°C71.7%706.8hPa0V00:00:0000:00:0000:00:00
PU1XMG-162026-09-01 23:42:37-22.80889-43.1912599°86km/h3003m6.7m/s7.0°C69.9%709.3hPa0V00:00:0000:00:0000:00:00
PU1XMG-162026-09-01 23:42:31-22.80881-43.1925896°82km/h2966m4.8m/s7.3°C69.6%712.6hPa0V00:00:0000:00:0000:00:00
PU1XMG-162026-09-01 23:42:26-22.80876-43.1937295°78km/h2932m7.2m/s7.6°C68.4%715.2hPa0V00:00:0000:00:0000:00:00
PU1XMG-162026-09-01 23:42:20-22.80867-43.1948197°78km/h2900m7.4m/s7.8°C68.0%718.1hPa0V00:00:0000:00:0000:00:00
PU1XMG-162026-09-01 23:42:16-22.80860-43.1959590°84km/h2873m6.4m/s8.0°C68.4%720.5hPa0V00:00:0000:00:0000:00:00
PU1XMG-162026-09-01 23:42:10-22.80853-43.1973096°80km/h2840m7.9m/s8.1°C68.9%723.3hPa0V00:00:0000:00:0000:00:00
PU1XMG-162026-09-01 23:42:05-22.80844-43.1984194°80km/h2811m7.5m/s7.9°C75.8%725.7hPa0V00:00:0000:00:0000:00:00
PU1XMG-162026-09-01 23:41:59-22.80831-43.1995297°78km/h2783m5.2m/s7.9°C78.0%728.1hPa0V00:00:0000:00:0000:00:00
PU1XMG-162026-09-01 23:41:55-22.80814-43.20052102°77km/h2755m4.9m/s8.0°C79.1%730.6hPa0V00:00:0000:00:0000:00:00
PU1XMG-162026-09-01 23:41:48-22.80796-43.2016697°69km/h2719m6.3m/s8.1°C79.1%733.5hPa0V00:00:0000:00:0000:00:00
PU1XMG-162026-09-01 23:41:42-22.80781-43.20279101°69km/h2681m7.4m/s8.1°C81.4%736.9hPa0V00:00:0000:00:0000:00:00
PU1XMG-162026-09-01 23:41:38-22.80765-43.2037695°71km/h2655m5.5m/s8.1°C83.2%739.4hPa0V00:00:0000:00:0000:00:00
PU1XMG-162026-09-01 23:41:32-22.80751-43.20488100°75km/h2623m7.7m/s8.3°C83.8%742.3hPa0V00:00:0000:00:0000:00:00
PU1XMG-162026-09-01 23:41:26-22.80734-43.2059097°71km/h2589m4.4m/s8.3°C82.5%745.3hPa0V00:00:0000:00:0000:00:00
PU1XMG-162026-09-01 23:41:21-22.80716-43.2070898°73km/h2556m7.0m/s8.5°C79.1%748.3hPa0V00:00:0000:00:0000:00:00
PU1XMG-162026-09-01 23:41:16-22.80705-43.20799100°66km/h2525m8.1m/s8.8°C77.3%751.0hPa0V00:00:0000:00:0000:00:00
PU1XMG-162026-09-01 23:41:09-22.80694-43.2090597°64km/h2484m5.9m/s9.1°C75.5%754.6hPa0V00:00:0000:00:0000:00:00
PU1XMG-162026-09-01 23:41:04-22.80689-43.2101396°68km/h2450m8.3m/s9.4°C74.2%757.8hPa0V00:00:0000:00:0000:00:00
PU1XMG-162026-09-01 23:40:58-22.80675-43.2111495°60km/h2412m5.8m/s9.7°C74.4%761.5hPa0V00:00:0000:00:0000:00:00
PU1XMG-162026-09-01 23:40:53-22.80671-43.2119993°57km/h2386m5.2m/s9.3°C81.1%763.9hPa0V00:00:0000:00:0000:00:00
PU1XMG-162026-09-01 23:40:48-22.80677-43.2128582°64km/h2356m4.6m/s9.3°C80.6%766.6hPa0V00:00:0000:00:0000:00:00
PU1XMG-162026-09-01 23:40:42-22.80684-43.2138389°58km/h2316m8.3m/s9.6°C78.9%770.1hPa0V00:00:0000:00:0000:00:00
PU1XMG-162026-09-01 23:40:37-22.80682-43.2145994°55km/h2284m7.3m/s9.8°C76.1%773.1hPa0V00:00:0000:00:0000:00:00
PU1XMG-162026-09-01 23:40:31-22.80681-43.2153191°55km/h2252m8.2m/s10.0°C77.5%776.1hPa0V00:00:0000:00:0000:00:00
PU1XMG-162026-09-01 23:40:27-22.80687-43.2160983°58km/h2219m8.1m/s10.2°C77.6%779.2hPa0V00:00:0000:00:0000:00:00
PU1XMG-162026-09-01 23:40:21-22.80697-43.2168384°49km/h2188m7.0m/s10.1°C82.0%782.2hPa0V00:00:0000:00:0000:00:00
PU1XMG-162026-09-01 23:40:15-22.80706-43.2177387°55km/h2146m8.2m/s10.2°C83.3%786.1hPa0V00:00:0000:00:0000:00:00
PU1XMG-162026-09-01 23:40:10-22.80710-43.2185188°55km/h2110m7.0m/s10.2°C84.8%789.4hPa0V00:00:0000:00:0000:00:00
PU1XMG-162026-09-01 23:40:05-22.80712-43.2192788°53km/h2075m7.1m/s10.4°C87.0%792.5hPa0V00:00:0000:00:0000:00:00
PU1XMG-162026-09-01 23:40:00-22.80710-43.2200596°57km/h2044m7.5m/s10.6°C88.0%795.4hPa0V00:00:0000:00:0000:00:00
PU1XMG-162026-09-01 23:39:54-22.80706-43.2210093°57km/h2003m6.0m/s11.0°C86.8%799.4hPa0V00:00:0000:00:0000:00:00
PU1XMG-162026-09-01 23:39:49-22.80701-43.2217994°58km/h1969m6.7m/s11.2°C86.8%802.6hPa0V00:00:0000:00:0000:00:00
PU1XMG-162026-09-01 23:39:45-22.80694-43.2226696°62km/h1934m7.4m/s11.4°C87.9%806.0hPa0V00:00:0000:00:0000:00:00
PU1XMG-162026-09-01 23:39:38-22.80680-43.22362102°58km/h1894m8.1m/s11.8°C88.3%809.8hPa0V00:00:0000:00:0000:00:00
PU1XMG-162026-09-01 23:39:33-22.80666-43.2244699°51km/h1852m6.7m/s12.1°C87.7%814.2hPa0V00:00:0000:00:0000:00:00
PU1XMG-162026-09-01 23:39:27-22.80651-43.22532105°53km/h1807m6.8m/s11.9°C96.6%818.4hPa0V00:00:0000:00:0000:00:00
PU1XMG-162026-09-01 23:39:21-22.80636-43.22602100°53km/h1772m7.4m/s12.1°C94.8%822.0hPa0V00:00:0000:00:0000:00:00
PU1XMG-162026-09-01 23:39:15-22.80622-43.22682101°47km/h1729m6.1m/s12.3°C94.1%826.3hPa0V00:00:0000:00:0000:00:00
PU1XMG-162026-09-01 23:39:10-22.80611-43.22743100°46km/h1692m8.3m/s12.4°C97.0%829.9hPa0V00:00:0000:00:0000:00:00
PU1XMG-162026-09-01 23:39:05-22.80607-43.2280691°46km/h1656m9.5m/s12.8°C93.0%833.3hPa0V00:00:0000:00:0000:00:00
PU1XMG-162026-09-01 23:39:00-22.80603-43.2286797°46km/h1617m8.7m/s13.0°C92.6%836.9hPa0V00:00:0000:00:0000:00:00
PU1XMG-162026-09-01 23:38:54-22.80595-43.2294095°40km/h1573m5.2m/s13.4°C87.5%841.2hPa0V00:00:0000:00:0000:00:00
PU1XMG-162026-09-01 23:38:49-22.80590-43.2299696°40km/h1540m5.6m/s13.7°C86.4%844.6hPa0V00:00:0000:00:0000:00:00
PU1XMG-162026-09-01 23:38:45-22.80586-43.2305193°40km/h1504m6.7m/s13.9°C86.4%848.2hPa0V00:00:0000:00:0000:00:00
PU1XMG-162026-09-01 23:38:40-22.80584-43.2310597°44km/h1470m5.5m/s13.9°C92.4%851.6hPa0V00:00:0000:00:0000:00:00
PU1XMG-162026-09-01 23:38:33-22.80577-43.23175100°40km/h1427m6.0m/s14.0°C96.3%856.0hPa0V00:00:0000:00:0000:00:00
PU1XMG-162026-09-01 23:38:29-22.80571-43.2322999°38km/h1393m7.6m/s14.2°C96.7%859.6hPa0V00:00:0000:00:0000:00:00
PU1XMG-162026-09-01 23:38:24-22.80565-43.23281103°35km/h1359m7.1m/s14.5°C96.7%863.0hPa0V00:00:0000:00:0000:00:00
PU1XMG-162026-09-01 23:38:19-22.80555-43.23323103°31km/h1323m7.9m/s14.7°C96.7%866.5hPa0V00:00:0000:00:0000:00:00
PU1XMG-162026-09-01 23:38:14-22.80550-43.2336394°35km/h1290m6.9m/s15.0°C95.8%869.9hPa0V00:00:0000:00:0000:00:00
PU1XMG-162026-09-01 23:38:07-22.80543-43.23424100°38km/h1247m8.2m/s15.4°C94.2%874.4hPa0V00:00:0000:00:0000:00:00
PU1XMG-162026-09-01 23:38:01-22.80530-43.23488106°42km/h1205m7.2m/s15.7°C92.9%878.6hPa0V00:00:0000:00:0000:00:00
PU1XMG-162026-09-01 23:37:56-22.80519-43.23538102°37km/h1175m7.1m/s16.0°C92.2%881.9hPa0V00:00:0000:00:0000:00:00
PU1XMG-162026-09-01 23:37:50-22.80506-43.23597107°37km/h1136m6.7m/s16.3°C90.6%886.0hPa0V00:00:0000:00:0000:00:00
PU1XMG-162026-09-01 23:37:45-22.80497-43.2364399°33km/h1101m6.0m/s16.6°C90.2%889.7hPa0V00:00:0000:00:0000:00:00
PU1XMG-162026-09-01 23:37:40-22.80486-43.23700102°40km/h1063m8.5m/s16.9°C89.3%893.9hPa0V00:00:0000:00:0000:00:00
PU1XMG-162026-09-01 23:37:35-22.80475-43.23750106°37km/h1027m8.6m/s17.1°C89.7%897.4hPa0V00:00:0000:00:0000:00:00
PU1XMG-162026-09-01 23:37:28-22.80466-43.2380998°38km/h983m7.2m/s17.3°C90.6%901.9hPa0V00:00:0000:00:0000:00:00
PU1XMG-162026-09-01 23:37:23-22.80461-43.2385499°31km/h950m6.3m/s17.5°C89.8%905.2hPa0V00:00:0000:00:0000:00:00
PU1XMG-162026-09-01 23:37:17-22.80460-43.2390688°33km/h912m9.5m/s17.8°C88.8%909.5hPa0V00:00:0000:00:0000:00:00
PU1XMG-162026-09-01 23:37:12-22.80462-43.2394882°31km/h877m5.4m/s18.1°C87.6%913.1hPa0V00:00:0000:00:0000:00:00
PU1XMG-162026-09-01 23:37:06-22.80466-43.2399488°26km/h839m5.2m/s18.3°C0%0hPa0V00:00:0000:00:0000:00:00
PU1XMG-162026-09-01 23:37:02-22.80472-43.2403177°31km/h810m5.9m/s18.6°C0%0hPa0V00:00:0000:00:0000:00:00
PU1XMG-162026-09-01 23:36:55-22.80482-43.2407679°29km/h775m7.4m/s18.9°C0%0hPa0V00:00:0000:00:0000:00:00
PU1XMG-162026-09-01 23:36:50-22.80490-43.2411781°31km/h745m5.2m/s19.1°C0%0hPa0V00:00:0000:00:0000:00:00
PU1XMG-162026-09-01 23:36:46-22.80499-43.2415677°29km/h716m7.6m/s19.4°C0%0hPa0V00:00:0000:00:0000:00:00
PU1XMG-162026-09-01 23:36:41-22.80505-43.2419879°31km/h685m6.1m/s0°C0%0hPa0V00:00:0000:00:0000:00:00
PU1XMG-162026-09-01 23:36:35-22.80519-43.2424975°29km/h649m7.0m/s0°C0%0hPa0V00:00:0000:00:0000:00:00
PU1XMG-162026-09-01 23:36:29-22.80530-43.2429873°33km/h615m7.4m/s0°C0%0hPa0V00:00:0000:00:0000:00:00
PU1XMG-162026-09-01 23:36:22-22.80553-43.2434865°35km/h581m5.0m/s0°C0%0hPa0V00:00:0000:00:0000:00:00
PU1XMG-162026-09-01 23:36:09-22.80595-43.2446963°37km/h500m6.1m/s0°C0%0hPa0V00:00:0000:00:0000:00:00
PU1XMG-162026-09-01 23:36:03-22.80616-43.2451969°42km/h470m8.7m/s0°C0%0hPa0V00:00:0000:00:0000:00:00


GPX KML Map

© wettersonde.net (DO2JMG) - 2026  -  -